createdAt,value
2023-03-26T00:01:58.520Z,52.24
2023-03-26T00:05:01.100Z,52.18
2023-03-26T00:08:03.945Z,51.86
2023-03-26T00:11:08.707Z,51.82
2023-03-26T00:14:14.078Z,52.33
2023-03-26T00:17:16.827Z,52.37
2023-03-26T00:20:19.392Z,51.95
2023-03-26T00:23:22.218Z,52.09
2023-03-26T00:26:24.670Z,52.25
2023-03-26T00:29:28.145Z,52.43
2023-03-26T00:32:31.489Z,52.61
2023-03-26T00:35:38.416Z,52.77
2023-03-26T00:38:43.014Z,52.87
2023-03-26T00:41:45.860Z,52.92
2023-03-26T00:44:51.185Z,53.07
2023-03-26T00:47:53.750Z,52.19
2023-03-26T00:50:57.593Z,52.14
2023-03-26T00:54:00.785Z,52.70
2023-03-26T00:57:06.964Z,53.58
2023-03-26T01:00:15.388Z,53.46
2023-03-26T01:03:27.784Z,52.47
2023-03-26T01:06:36.011Z,52.70
2023-03-26T01:09:50.474Z,52.37
2023-03-26T01:12:53.103Z,52.94
2023-03-26T01:15:57.914Z,53.31
2023-03-26T01:19:00.917Z,52.93
2023-03-26T01:22:05.184Z,53.05
2023-03-26T01:25:09.649Z,53.07
2023-03-26T01:28:12.890Z,52.87
2023-03-26T01:31:38.744Z,52.75
2023-03-26T01:35:00.114Z,53.22
2023-03-26T01:38:10.912Z,53.08
2023-03-26T01:41:17.724Z,52.98
2023-03-26T01:44:59.604Z,53.27
2023-03-26T01:48:02.451Z,53.23
2023-03-26T01:51:06.571Z,53.34
2023-03-26T01:54:31.544Z,52.08
2023-03-26T01:57:43.196Z,51.27
2023-03-26T02:01:24.677Z,50.62
2023-03-26T02:04:43.282Z,51.11
2023-03-26T02:08:12.271Z,51.72
2023-03-26T02:11:16.661Z,51.53
2023-03-26T02:14:19.441Z,51.93
2023-03-26T02:17:24.524Z,51.57
2023-03-26T02:20:30.407Z,51.15
2023-03-26T02:23:35.955Z,51.73
2023-03-26T02:26:38.985Z,51.48
2023-03-26T02:29:47.797Z,51.46
2023-03-26T02:32:52.331Z,52.14
2023-03-26T02:36:02.699Z,52.33
2023-03-26T02:39:05.513Z,52.65
2023-03-26T02:42:12.703Z,52.82
2023-03-26T02:45:22.214Z,52.73
2023-03-26T02:48:44.055Z,53.09
2023-03-26T02:51:56.391Z,52.94
2023-03-26T02:55:02.391Z,52.99
2023-03-26T02:58:05.090Z,53.45
2023-03-26T03:01:11.912Z,53.03
2023-03-26T03:04:25.498Z,52.56
2023-03-26T03:07:29.216Z,52.80
2023-03-26T03:10:32.941Z,52.94
2023-03-26T03:13:56.634Z,52.92
2023-03-26T03:17:01.928Z,53.01
2023-03-26T03:20:07.394Z,53.74
2023-03-26T03:23:11.356Z,53.79
2023-03-26T03:26:16.669Z,53.62
2023-03-26T03:29:25.240Z,53.07
2023-03-26T03:32:28.094Z,52.77
2023-03-26T03:35:35.642Z,52.76
2023-03-26T03:38:39.643Z,52.85
2023-03-26T03:41:42.338Z,53.09
2023-03-26T03:44:49.403Z,52.34
2023-03-26T03:48:10.504Z,52.79
2023-03-26T03:51:18.483Z,53.21
2023-03-26T03:54:31.344Z,52.98
2023-03-26T03:58:03.833Z,53.87
2023-03-26T04:01:07.480Z,53.67
2023-03-26T04:04:25.848Z,54.34
2023-03-26T04:07:48.741Z,54.93
2023-03-26T04:11:13.455Z,54.83
2023-03-26T04:14:39.467Z,54.95
2023-03-26T04:17:49.119Z,55.49
2023-03-26T04:20:55.706Z,55.99
2023-03-26T04:24:02.765Z,56.07
2023-03-26T04:27:28.390Z,56.19
2023-03-26T04:30:42.703Z,56.47
2023-03-26T04:34:13.735Z,56.62
2023-03-26T04:37:34.666Z,57.39
2023-03-26T04:40:49.635Z,57.00
2023-03-26T04:44:17.154Z,57.39
2023-03-26T04:47:29.461Z,57.20
2023-03-26T04:50:32.004Z,57.63
2023-03-26T04:53:35.979Z,57.46
2023-03-26T04:56:54.394Z,57.16
2023-03-26T05:00:16.645Z,56.13
2023-03-26T05:03:22.588Z,55.60
2023-03-26T05:06:28.072Z,55.21
2023-03-26T05:09:31.887Z,54.92
2023-03-26T05:12:49.598Z,53.64
2023-03-26T05:15:56.716Z,53.18
2023-03-26T05:19:15.097Z,52.23
2023-03-26T05:22:18.816Z,52.03
2023-03-26T05:25:44.654Z,51.01
2023-03-26T05:28:57.090Z,50.50
2023-03-26T05:32:04.679Z,50.35
2023-03-26T05:35:07.703Z,49.77
2023-03-26T05:38:10.940Z,49.77
2023-03-26T05:41:13.768Z,49.37
2023-03-26T05:44:19.586Z,48.96
2023-03-26T05:47:22.453Z,48.86
2023-03-26T05:50:25.530Z,48.47
2023-03-26T05:53:33.848Z,48.37
2023-03-26T05:56:55.032Z,48.31
2023-03-26T06:00:16.470Z,47.93
2023-03-26T06:03:23.134Z,48.06
2023-03-26T06:06:46.322Z,48.22
2023-03-26T06:09:49.239Z,48.39
2023-03-26T06:12:51.877Z,48.58
2023-03-26T06:15:55.371Z,49.10
2023-03-26T06:19:20.886Z,49.38
2023-03-26T06:22:44.062Z,49.29
2023-03-26T06:25:56.448Z,48.92
2023-03-26T06:29:25.379Z,49.27
2023-03-26T06:32:46.356Z,49.24
2023-03-26T06:35:54.241Z,49.06
2023-03-26T06:38:58.267Z,48.82
2023-03-26T06:42:01.510Z,48.39
2023-03-26T06:45:23.491Z,47.45
2023-03-26T06:48:49.470Z,45.89
2023-03-26T06:52:11.046Z,45.45
2023-03-26T06:55:19.939Z,44.25
2023-03-26T06:58:38.750Z,43.31
2023-03-26T07:02:00.870Z,43.05
2023-03-26T07:05:22.668Z,42.82
2023-03-26T07:08:44.068Z,42.03
2023-03-26T07:12:12.869Z,41.45
2023-03-26T07:15:24.218Z,41.43
2023-03-26T07:18:45.528Z,40.50
2023-03-26T07:21:54.231Z,40.48
2023-03-26T07:25:20.608Z,40.17
2023-03-26T07:29:04.007Z,40.06
2023-03-26T07:32:38.422Z,41.86
2023-03-26T07:36:08.466Z,43.97
2023-03-26T07:39:42.392Z,44.61
2023-03-26T07:43:01.975Z,44.46
2023-03-26T07:46:29.472Z,43.17
2023-03-26T07:49:58.039Z,42.19
2023-03-26T07:53:20.876Z,40.89
2023-03-26T07:56:41.419Z,40.04
2023-03-26T08:00:14.315Z,39.22
2023-03-26T08:03:54.765Z,38.53
2023-03-26T08:08:06.694Z,37.05
2023-03-26T08:11:30.202Z,36.68
2023-03-26T08:14:50.277Z,36.28
2023-03-26T08:17:57.228Z,35.39
2023-03-26T08:21:08.114Z,35.30
2023-03-26T08:24:22.956Z,34.79
2023-03-26T08:27:44.191Z,34.44
2023-03-26T08:30:47.230Z,34.15
2023-03-26T08:33:50.249Z,34.25
2023-03-26T08:36:52.798Z,34.31
2023-03-26T08:39:55.810Z,34.49
2023-03-26T08:43:29.085Z,34.53
2023-03-26T08:46:54.136Z,34.96
2023-03-26T08:50:12.585Z,35.50
2023-03-26T08:53:18.805Z,34.97
2023-03-26T08:56:44.725Z,33.98
2023-03-26T09:00:20.155Z,33.40
2023-03-26T09:03:49.238Z,31.41
2023-03-26T09:07:12.411Z,29.98
2023-03-26T09:10:37.413Z,26.93
2023-03-26T09:14:14.047Z,28.92
2023-03-26T09:17:35.167Z,30.03
2023-03-26T09:21:10.948Z,30.21
2023-03-26T09:24:19.197Z,29.55
2023-03-26T09:27:24.565Z,28.52
2023-03-26T09:30:42.989Z,27.40
2023-03-26T09:34:08.623Z,24.55
2023-03-26T09:37:57.499Z,24.77
2023-03-26T09:41:14.204Z,24.26
2023-03-26T09:44:41.039Z,22.48
2023-03-26T09:48:05.713Z,21.05
2023-03-26T09:51:31.273Z,23.76
2023-03-26T09:54:55.309Z,18.27
2023-03-26T09:58:34.846Z,14.96
2023-03-26T10:01:50.888Z,14.29
2023-03-26T10:05:15.632Z,14.44
2023-03-26T10:08:47.604Z,17.95
2023-03-26T10:11:50.722Z,20.64
2023-03-26T10:15:21.331Z,23.96
2023-03-26T10:18:29.997Z,26.96
2023-03-26T10:21:38.811Z,28.13
2023-03-26T10:25:00.555Z,29.55
2023-03-26T10:28:13.523Z,30.75
2023-03-26T10:31:34.914Z,32.56
2023-03-26T10:34:48.420Z,37.32
2023-03-26T10:38:10.328Z,44.33
2023-03-26T10:41:18.637Z,47.47
2023-03-26T10:44:43.405Z,46.13
2023-03-26T10:47:51.978Z,38.84
2023-03-26T10:51:19.570Z,29.27
2023-03-26T10:54:32.628Z,24.33
2023-03-26T10:57:41.568Z,19.55
2023-03-26T11:00:56.222Z,23.41
2023-03-26T11:04:14.698Z,22.29
2023-03-26T11:07:25.580Z,26.52
2023-03-26T11:10:37.781Z,28.94
2023-03-26T11:13:55.349Z,31.87
2023-03-26T11:17:40.900Z,34.64
2023-03-26T11:20:51.046Z,36.85
2023-03-26T11:24:11.849Z,31.36
2023-03-26T11:27:36.414Z,28.82
2023-03-26T11:30:59.879Z,22.55
2023-03-26T11:34:10.409Z,27.91
2023-03-26T11:37:24.403Z,30.98
2023-03-26T11:40:37.008Z,32.32
2023-03-26T11:43:39.926Z,25.99
2023-03-26T11:46:45.887Z,16.65
2023-03-26T11:49:52.526Z,12.18
2023-03-26T11:53:03.392Z,10.10
2023-03-26T11:56:15.147Z,9.32
2023-03-26T11:59:21.778Z,9.51
2023-03-26T12:02:45.808Z,8.39
2023-03-26T12:05:58.330Z,7.55
2023-03-26T12:09:01.558Z,11.69
2023-03-26T12:12:06.279Z,16.11
2023-03-26T12:15:19.236Z,18.25
2023-03-26T12:18:28.052Z,15.14
2023-03-26T12:21:30.738Z,14.26
2023-03-26T12:24:36.097Z,19.42
2023-03-26T12:27:48.585Z,21.36
2023-03-26T12:30:59.098Z,14.39
2023-03-26T12:34:14.017Z,15.80
2023-03-26T12:37:44.611Z,20.91
2023-03-26T12:40:48.091Z,20.61
2023-03-26T12:44:53.798Z,22.65
2023-03-26T12:47:59.506Z,24.60
2023-03-26T12:51:01.972Z,22.89
2023-03-26T12:54:15.590Z,19.27
2023-03-26T12:57:22.756Z,21.70
2023-03-26T13:00:35.145Z,23.38
2023-03-26T13:04:07.215Z,23.17
2023-03-26T13:07:37.876Z,22.37
2023-03-26T13:10:43.226Z,17.12
2023-03-26T13:14:39.821Z,16.03
2023-03-26T13:18:14.898Z,17.20
2023-03-26T13:21:34.652Z,14.96
2023-03-26T13:25:09.792Z,12.46
2023-03-26T13:28:31.663Z,11.41
2023-03-26T13:32:09.378Z,17.65
2023-03-26T13:35:36.942Z,15.28
2023-03-26T13:39:05.126Z,16.05
2023-03-26T13:42:59.195Z,19.93
2023-03-26T13:46:05.707Z,20.29
2023-03-26T13:49:16.692Z,18.76
2023-03-26T13:52:19.718Z,20.88
2023-03-26T13:55:30.439Z,20.30
2023-03-26T13:58:43.263Z,21.84
2023-03-26T14:02:02.299Z,22.19
2023-03-26T14:05:17.556Z,22.24
2023-03-26T14:08:27.974Z,22.36
2023-03-26T14:11:49.038Z,17.02
2023-03-26T14:15:33.395Z,15.28
2023-03-26T14:19:05.026Z,18.46
2023-03-26T14:22:37.549Z,11.69
2023-03-26T14:25:54.641Z,17.69
2023-03-26T14:29:24.523Z,19.73
2023-03-26T14:32:59.263Z,13.62
2023-03-26T14:36:20.063Z,12.25
2023-03-26T14:39:53.445Z,13.21
2023-03-26T14:43:14.873Z,12.99
2023-03-26T14:46:55.452Z,13.31
2023-03-26T14:50:36.259Z,12.87
2023-03-26T14:53:47.620Z,13.07
2023-03-26T14:57:13.046Z,15.53
2023-03-26T15:00:49.755Z,14.56
2023-03-26T15:04:11.463Z,17.91
2023-03-26T15:07:26.110Z,18.09
2023-03-26T15:10:57.076Z,19.07
2023-03-26T15:14:24.420Z,20.14
2023-03-26T15:18:09.360Z,20.16
2023-03-26T15:21:37.756Z,21.20
2023-03-26T15:25:20.888Z,21.97
2023-03-26T15:28:51.471Z,22.01
2023-03-26T15:32:03.566Z,22.75
2023-03-26T15:35:21.630Z,22.94
2023-03-26T15:38:46.861Z,23.87
2023-03-26T15:42:18.451Z,24.36
2023-03-26T15:45:48.354Z,24.42
2023-03-26T15:49:12.445Z,24.93
2023-03-26T15:52:40.570Z,25.47
2023-03-26T15:56:08.336Z,25.72
2023-03-26T15:59:12.239Z,25.62
2023-03-26T16:02:35.208Z,25.84
2023-03-26T16:06:07.806Z,26.59
2023-03-26T16:09:32.739Z,26.93
2023-03-26T16:13:15.311Z,27.14
2023-03-26T16:16:24.684Z,27.70
2023-03-26T16:19:49.822Z,28.10
2023-03-26T16:23:01.886Z,28.21
2023-03-26T16:26:06.510Z,28.50
2023-03-26T16:29:22.357Z,28.86
2023-03-26T16:32:31.548Z,28.78
2023-03-26T16:36:02.517Z,28.93
2023-03-26T16:39:06.024Z,28.91
2023-03-26T16:42:31.409Z,29.34
2023-03-26T16:45:46.505Z,29.65
2023-03-26T16:49:03.891Z,29.82
2023-03-26T16:52:36.738Z,30.21
2023-03-26T16:55:47.561Z,30.47
2023-03-26T16:59:07.640Z,30.71
2023-03-26T17:02:21.759Z,30.90
2023-03-26T17:05:42.000Z,31.42
2023-03-26T17:08:57.029Z,31.73
2023-03-26T17:12:15.847Z,32.21
2023-03-26T17:15:34.593Z,32.31
2023-03-26T17:18:54.551Z,32.80
2023-03-26T17:22:14.816Z,32.87
2023-03-26T17:25:33.618Z,32.82
2023-03-26T17:28:56.447Z,32.98
2023-03-26T17:32:15.539Z,33.19
2023-03-26T17:35:38.040Z,32.97
2023-03-26T17:38:44.905Z,32.99
2023-03-26T17:42:21.862Z,32.98
2023-03-26T17:45:32.109Z,32.86
2023-03-26T17:48:39.019Z,32.86
2023-03-26T17:52:36.346Z,32.75
2023-03-26T17:55:44.326Z,32.62
2023-03-26T17:58:53.273Z,32.90
2023-03-26T18:02:03.750Z,32.74
2023-03-26T18:05:13.275Z,32.77
2023-03-26T18:08:55.566Z,32.89
2023-03-26T18:12:26.643Z,32.97
2023-03-26T18:15:48.653Z,33.24
2023-03-26T18:19:00.303Z,33.79
2023-03-26T18:22:07.516Z,33.93
2023-03-26T18:25:32.793Z,33.36
2023-03-26T18:28:42.604Z,33.58
2023-03-26T18:31:49.504Z,33.48
2023-03-26T18:35:01.896Z,33.27
2023-03-26T18:38:06.045Z,33.09
2023-03-26T18:41:22.427Z,33.05
2023-03-26T18:44:26.736Z,32.33
2023-03-26T18:47:31.312Z,32.75
2023-03-26T18:50:40.079Z,32.49
2023-03-26T18:53:50.948Z,32.81
2023-03-26T18:57:16.433Z,33.02
2023-03-26T19:00:28.152Z,32.48
2023-03-26T19:03:40.421Z,32.81
2023-03-26T19:06:45.065Z,32.91
2023-03-26T19:09:56.935Z,32.96
2023-03-26T19:13:04.724Z,32.94
2023-03-26T19:16:36.722Z,33.74
2023-03-26T19:19:43.284Z,34.33
2023-03-26T19:22:49.119Z,35.07
2023-03-26T19:25:58.901Z,35.33
2023-03-26T19:29:03.652Z,36.15
2023-03-26T19:32:49.001Z,36.21
2023-03-26T19:36:21.917Z,36.41
2023-03-26T19:39:37.556Z,36.16
2023-03-26T19:42:45.030Z,36.11
2023-03-26T19:46:00.112Z,36.78
2023-03-26T19:49:06.573Z,36.93
2023-03-26T19:52:22.779Z,37.04
2023-03-26T19:55:28.948Z,37.66
2023-03-26T19:58:33.486Z,37.39
2023-03-26T20:01:37.798Z,37.66
2023-03-26T20:04:42.926Z,37.92
2023-03-26T20:07:47.037Z,37.92
2023-03-26T20:10:57.722Z,38.00
2023-03-26T20:14:02.566Z,37.87
2023-03-26T20:17:22.571Z,37.81
2023-03-26T20:20:27.697Z,37.81
2023-03-26T20:23:31.211Z,37.76
2023-03-26T20:26:38.602Z,36.89
2023-03-26T20:29:43.214Z,37.05
2023-03-26T20:32:47.962Z,37.26
2023-03-26T20:35:55.941Z,37.24
2023-03-26T20:38:59.864Z,37.30
2023-03-26T20:42:03.046Z,36.83
2023-03-26T20:45:18.272Z,36.81
2023-03-26T20:48:22.189Z,36.69
2023-03-26T20:51:28.998Z,36.43
2023-03-26T20:54:32.098Z,36.65
2023-03-26T20:57:35.391Z,36.99
2023-03-26T21:00:39.688Z,37.24
2023-03-26T21:03:42.454Z,37.27
2023-03-26T21:06:45.625Z,36.99
2023-03-26T21:09:48.926Z,37.20
2023-03-26T21:13:00.851Z,37.26
2023-03-26T21:16:04.394Z,37.82
2023-03-26T21:19:09.251Z,37.99
2023-03-26T21:22:11.879Z,38.36
2023-03-26T21:25:25.771Z,38.57
2023-03-26T21:28:41.909Z,38.82
2023-03-26T21:31:46.766Z,39.16
2023-03-26T21:34:58.657Z,39.42
2023-03-26T21:38:04.541Z,39.94
2023-03-26T21:41:07.816Z,40.63
2023-03-26T21:44:11.030Z,41.45
2023-03-26T21:47:14.137Z,42.65
2023-03-26T21:50:20.674Z,46.58
2023-03-26T21:53:24.707Z,48.74
2023-03-26T21:56:33.109Z,49.64
2023-03-26T21:59:53.995Z,49.70
2023-03-26T22:03:23.689Z,49.86
2023-03-26T22:06:37.241Z,50.51
2023-03-26T22:09:39.987Z,50.11
2023-03-26T22:12:42.517Z,49.94
2023-03-26T22:15:46.312Z,50.61
2023-03-26T22:18:49.109Z,51.18
2023-03-26T22:21:51.613Z,52.15
2023-03-26T22:24:54.451Z,52.54
2023-03-26T22:27:57.597Z,51.99
2023-03-26T22:31:07.313Z,52.12
2023-03-26T22:34:09.941Z,52.37
2023-03-26T22:37:13.624Z,54.06
2023-03-26T22:40:18.003Z,54.34
2023-03-26T22:43:20.586Z,55.82
2023-03-26T22:46:23.689Z,55.67
2023-03-26T22:49:27.522Z,55.46
2023-03-26T22:52:30.810Z,55.47
2023-03-26T22:55:33.631Z,56.23
2023-03-26T22:58:37.227Z,56.94
2023-03-26T23:01:40.263Z,57.02
2023-03-26T23:04:44.152Z,58.03
2023-03-26T23:07:47.397Z,59.22
2023-03-26T23:10:50.007Z,60.23
2023-03-26T23:13:52.751Z,60.70
2023-03-26T23:16:55.810Z,60.94
2023-03-26T23:19:58.641Z,61.73
2023-03-26T23:23:01.398Z,61.38
2023-03-26T23:26:04.765Z,61.89
2023-03-26T23:29:07.963Z,62.64
2023-03-26T23:32:23.361Z,63.88
2023-03-26T23:35:27.532Z,64.39
2023-03-26T23:38:43.372Z,64.73
2023-03-26T23:41:47.177Z,64.64
2023-03-26T23:44:49.759Z,65.36
2023-03-26T23:47:52.336Z,65.51
2023-03-26T23:51:04.016Z,65.35
2023-03-26T23:54:08.840Z,66.10
2023-03-26T23:57:11.901Z,67.20
